sensor_id;sensor_type;location;lat;lon;timestamp;P1;durP1;ratioP1;P2;durP2;ratioP2
15398;SDS011;7797;51.428;6.756;2024-01-15T00:00:21;22.80;;;12.63;;
15398;SDS011;7797;51.428;6.756;2024-01-15T00:02:47;20.77;;;11.97;;
15398;SDS011;7797;51.428;6.756;2024-01-15T00:05:14;22.73;;;13.57;;
15398;SDS011;7797;51.428;6.756;2024-01-15T00:07:41;24.87;;;12.63;;
15398;SDS011;7797;51.428;6.756;2024-01-15T00:10:08;21.03;;;12.17;;
15398;SDS011;7797;51.428;6.756;2024-01-15T00:12:35;23.57;;;12.57;;
15398;SDS011;7797;51.428;6.756;2024-01-15T00:15:02;24.90;;;12.80;;
15398;SDS011;7797;51.428;6.756;2024-01-15T00:17:29;25.57;;;13.37;;
15398;SDS011;7797;51.428;6.756;2024-01-15T00:19:56;21.33;;;11.93;;
15398;SDS011;7797;51.428;6.756;2024-01-15T00:22:24;20.30;;;12.17;;
15398;SDS011;7797;51.428;6.756;2024-01-15T00:24:52;23.23;;;12.40;;
15398;SDS011;7797;51.428;6.756;2024-01-15T00:27:18;19.30;;;11.60;;
15398;SDS011;7797;51.428;6.756;2024-01-15T00:29:45;19.33;;;11.27;;
15398;SDS011;7797;51.428;6.756;2024-01-15T00:32:12;19.83;;;11.50;;
15398;SDS011;7797;51.428;6.756;2024-01-15T00:34:39;19.63;;;11.50;;
15398;SDS011;7797;51.428;6.756;2024-01-15T00:37:05;20.67;;;11.27;;
15398;SDS011;7797;51.428;6.756;2024-01-15T00:39:33;19.00;;;11.80;;
15398;SDS011;7797;51.428;6.756;2024-01-15T00:42:00;18.83;;;10.60;;
15398;SDS011;7797;51.428;6.756;2024-01-15T00:44:27;15.37;;;10.37;;
15398;SDS011;7797;51.428;6.756;2024-01-15T00:46:53;18.93;;;11.60;;
15398;SDS011;7797;51.428;6.756;2024-01-15T00:49:20;19.10;;;10.77;;
15398;SDS011;7797;51.428;6.756;2024-01-15T00:51:47;19.37;;;11.03;;
15398;SDS011;7797;51.428;6.756;2024-01-15T00:54:14;18.87;;;11.27;;
15398;SDS011;7797;51.428;6.756;2024-01-15T00:56:41;21.37;;;11.60;;
15398;SDS011;7797;51.428;6.756;2024-01-15T00:59:08;24.33;;;12.93;;
15398;SDS011;7797;51.428;6.756;2024-01-15T01:01:36;18.23;;;11.33;;
15398;SDS011;7797;51.428;6.756;2024-01-15T01:04:04;16.70;;;10.47;;
15398;SDS011;7797;51.428;6.756;2024-01-15T01:06:31;17.77;;;10.80;;
15398;SDS011;7797;51.428;6.756;2024-01-15T01:08:59;15.27;;;9.97;;
15398;SDS011;7797;51.428;6.756;2024-01-15T01:11:26;16.53;;;11.07;;
15398;SDS011;7797;51.428;6.756;2024-01-15T01:13:53;17.60;;;10.57;;
15398;SDS011;7797;51.428;6.756;2024-01-15T01:16:20;16.53;;;9.80;;
15398;SDS011;7797;51.428;6.756;2024-01-15T01:18:46;17.30;;;10.57;;
15398;SDS011;7797;51.428;6.756;2024-01-15T01:21:13;20.17;;;11.53;;
15398;SDS011;7797;51.428;6.756;2024-01-15T01:23:41;17.17;;;10.63;;
15398;SDS011;7797;51.428;6.756;2024-01-15T01:26:08;17.40;;;10.73;;
15398;SDS011;7797;51.428;6.756;2024-01-15T01:28:34;17.50;;;11.10;;
15398;SDS011;7797;51.428;6.756;2024-01-15T01:31:01;18.17;;;10.83;;
15398;SDS011;7797;51.428;6.756;2024-01-15T01:33:28;18.57;;;10.93;;
15398;SDS011;7797;51.428;6.756;2024-01-15T01:35:55;21.10;;;11.13;;
15398;SDS011;7797;51.428;6.756;2024-01-15T01:38:22;17.20;;;10.97;;
15398;SDS011;7797;51.428;6.756;2024-01-15T01:40:49;17.27;;;10.87;;
15398;SDS011;7797;51.428;6.756;2024-01-15T01:43:16;19.80;;;11.57;;
15398;SDS011;7797;51.428;6.756;2024-01-15T01:45:43;16.37;;;10.80;;
15398;SDS011;7797;51.428;6.756;2024-01-15T01:48:09;21.20;;;11.20;;
15398;SDS011;7797;51.428;6.756;2024-01-15T01:50:36;16.90;;;10.37;;
15398;SDS011;7797;51.428;6.756;2024-01-15T01:53:04;16.47;;;9.33;;
15398;SDS011;7797;51.428;6.756;2024-01-15T01:55:30;18.27;;;10.37;;
15398;SDS011;7797;51.428;6.756;2024-01-15T01:58:00;15.13;;;8.97;;
15398;SDS011;7797;51.428;6.756;2024-01-15T02:00:27;14.67;;;9.30;;
15398;SDS011;7797;51.428;6.756;2024-01-15T02:02:53;17.47;;;9.57;;
15398;SDS011;7797;51.428;6.756;2024-01-15T02:05:22;15.70;;;8.90;;
15398;SDS011;7797;51.428;6.756;2024-01-15T02:07:49;14.37;;;8.97;;
15398;SDS011;7797;51.428;6.756;2024-01-15T02:10:15;14.50;;;8.77;;
15398;SDS011;7797;51.428;6.756;2024-01-15T02:12:42;13.80;;;8.50;;
15398;SDS011;7797;51.428;6.756;2024-01-15T02:15:10;13.30;;;8.17;;
15398;SDS011;7797;51.428;6.756;2024-01-15T02:17:55;17.23;;;8.63;;
15398;SDS011;7797;51.428;6.756;2024-01-15T02:20:25;15.27;;;8.77;;
15398;SDS011;7797;51.428;6.756;2024-01-15T02:22:52;14.03;;;9.57;;
15398;SDS011;7797;51.428;6.756;2024-01-15T02:25:19;16.80;;;9.27;;
15398;SDS011;7797;51.428;6.756;2024-01-15T02:27:46;13.47;;;8.13;;
15398;SDS011;7797;51.428;6.756;2024-01-15T02:30:13;14.37;;;8.67;;
15398;SDS011;7797;51.428;6.756;2024-01-15T02:32:40;15.30;;;9.27;;
15398;SDS011;7797;51.428;6.756;2024-01-15T02:35:07;14.00;;;8.47;;
15398;SDS011;7797;51.428;6.756;2024-01-15T02:37:34;16.23;;;9.43;;
15398;SDS011;7797;51.428;6.756;2024-01-15T02:40:02;18.03;;;8.03;;
15398;SDS011;7797;51.428;6.756;2024-01-15T02:42:30;14.73;;;8.07;;
15398;SDS011;7797;51.428;6.756;2024-01-15T02:44:56;13.87;;;7.80;;
15398;SDS011;7797;51.428;6.756;2024-01-15T02:47:23;14.23;;;7.70;;
15398;SDS011;7797;51.428;6.756;2024-01-15T02:49:50;10.97;;;7.67;;
15398;SDS011;7797;51.428;6.756;2024-01-15T02:52:17;13.13;;;7.23;;
15398;SDS011;7797;51.428;6.756;2024-01-15T02:54:44;13.10;;;7.20;;
15398;SDS011;7797;51.428;6.756;2024-01-15T02:57:11;13.77;;;6.57;;
15398;SDS011;7797;51.428;6.756;2024-01-15T02:59:38;9.50;;;6.83;;
15398;SDS011;7797;51.428;6.756;2024-01-15T03:02:04;14.00;;;7.20;;
15398;SDS011;7797;51.428;6.756;2024-01-15T03:04:31;10.33;;;6.30;;
15398;SDS011;7797;51.428;6.756;2024-01-15T03:06:58;10.47;;;6.37;;
15398;SDS011;7797;51.428;6.756;2024-01-15T03:09:25;11.50;;;6.60;;
15398;SDS011;7797;51.428;6.756;2024-01-15T03:11:55;10.83;;;6.73;;
15398;SDS011;7797;51.428;6.756;2024-01-15T03:14:25;10.47;;;6.40;;
15398;SDS011;7797;51.428;6.756;2024-01-15T03:16:57;10.60;;;6.03;;
15398;SDS011;7797;51.428;6.756;2024-01-15T03:19:24;9.20;;;5.63;;
15398;SDS011;7797;51.428;6.756;2024-01-15T03:21:54;11.70;;;6.10;;
15398;SDS011;7797;51.428;6.756;2024-01-15T03:24:21;10.53;;;6.10;;
15398;SDS011;7797;51.428;6.756;2024-01-15T03:26:48;10.37;;;6.03;;
15398;SDS011;7797;51.428;6.756;2024-01-15T03:29:15;9.00;;;6.10;;
15398;SDS011;7797;51.428;6.756;2024-01-15T03:31:42;10.57;;;5.87;;
15398;SDS011;7797;51.428;6.756;2024-01-15T03:34:08;9.60;;;5.77;;
15398;SDS011;7797;51.428;6.756;2024-01-15T03:36:35;8.90;;;5.97;;
15398;SDS011;7797;51.428;6.756;2024-01-15T03:39:02;12.23;;;6.37;;
15398;SDS011;7797;51.428;6.756;2024-01-15T03:41:29;9.03;;;6.50;;
15398;SDS011;7797;51.428;6.756;2024-01-15T03:43:56;11.63;;;7.23;;
15398;SDS011;7797;51.428;6.756;2024-01-15T03:46:24;9.47;;;6.63;;
15398;SDS011;7797;51.428;6.756;2024-01-15T03:48:51;11.73;;;6.80;;
15398;SDS011;7797;51.428;6.756;2024-01-15T03:51:18;9.73;;;7.33;;
15398;SDS011;7797;51.428;6.756;2024-01-15T03:53:45;11.03;;;7.77;;
15398;SDS011;7797;51.428;6.756;2024-01-15T03:56:12;9.17;;;7.03;;
15398;SDS011;7797;51.428;6.756;2024-01-15T03:58:39;8.83;;;7.20;;
15398;SDS011;7797;51.428;6.756;2024-01-15T04:01:09;9.47;;;7.83;;
15398;SDS011;7797;51.428;6.756;2024-01-15T04:03:36;13.87;;;8.00;;
15398;SDS011;7797;51.428;6.756;2024-01-15T04:06:04;17.93;;;9.03;;
15398;SDS011;7797;51.428;6.756;2024-01-15T04:08:31;15.03;;;8.70;;
15398;SDS011;7797;51.428;6.756;2024-01-15T04:10:58;13.40;;;8.73;;
15398;SDS011;7797;51.428;6.756;2024-01-15T04:13:24;10.63;;;8.50;;
15398;SDS011;7797;51.428;6.756;2024-01-15T04:15:52;12.00;;;8.23;;
15398;SDS011;7797;51.428;6.756;2024-01-15T04:18:18;10.63;;;7.80;;
15398;SDS011;7797;51.428;6.756;2024-01-15T04:20:45;8.77;;;7.30;;
15398;SDS011;7797;51.428;6.756;2024-01-15T04:23:12;11.57;;;8.30;;
15398;SDS011;7797;51.428;6.756;2024-01-15T04:25:39;9.70;;;7.57;;
15398;SDS011;7797;51.428;6.756;2024-01-15T04:28:09;12.87;;;7.47;;
15398;SDS011;7797;51.428;6.756;2024-01-15T04:30:37;10.07;;;7.20;;
15398;SDS011;7797;51.428;6.756;2024-01-15T04:33:04;9.47;;;6.63;;
15398;SDS011;7797;51.428;6.756;2024-01-15T04:35:32;9.10;;;6.83;;
15398;SDS011;7797;51.428;6.756;2024-01-15T04:37:59;11.07;;;6.90;;
15398;SDS011;7797;51.428;6.756;2024-01-15T04:40:26;11.50;;;7.20;;
15398;SDS011;7797;51.428;6.756;2024-01-15T04:42:54;9.80;;;7.50;;
15398;SDS011;7797;51.428;6.756;2024-01-15T04:45:21;10.40;;;6.97;;
15398;SDS011;7797;51.428;6.756;2024-01-15T04:47:49;10.87;;;6.43;;
15398;SDS011;7797;51.428;6.756;2024-01-15T04:50:16;9.30;;;6.47;;
15398;SDS011;7797;51.428;6.756;2024-01-15T04:52:43;10.67;;;6.73;;
15398;SDS011;7797;51.428;6.756;2024-01-15T04:55:09;10.33;;;6.40;;
15398;SDS011;7797;51.428;6.756;2024-01-15T04:57:37;8.37;;;6.27;;
15398;SDS011;7797;51.428;6.756;2024-01-15T05:00:04;9.23;;;7.00;;
15398;SDS011;7797;51.428;6.756;2024-01-15T05:02:31;8.07;;;6.23;;
15398;SDS011;7797;51.428;6.756;2024-01-15T05:04:58;11.10;;;7.20;;
15398;SDS011;7797;51.428;6.756;2024-01-15T05:07:25;10.53;;;6.80;;
15398;SDS011;7797;51.428;6.756;2024-01-15T05:09:51;10.67;;;7.17;;
15398;SDS011;7797;51.428;6.756;2024-01-15T05:12:18;10.87;;;7.40;;
15398;SDS011;7797;51.428;6.756;2024-01-15T05:14:45;10.50;;;6.80;;
15398;SDS011;7797;51.428;6.756;2024-01-15T05:17:12;8.93;;;5.57;;
15398;SDS011;7797;51.428;6.756;2024-01-15T05:19:39;9.33;;;6.70;;
15398;SDS011;7797;51.428;6.756;2024-01-15T05:22:08;11.40;;;6.40;;
15398;SDS011;7797;51.428;6.756;2024-01-15T05:24:41;9.73;;;6.10;;
15398;SDS011;7797;51.428;6.756;2024-01-15T05:27:11;9.57;;;6.67;;
15398;SDS011;7797;51.428;6.756;2024-01-15T05:29:37;12.93;;;7.13;;
15398;SDS011;7797;51.428;6.756;2024-01-15T05:32:04;9.57;;;6.10;;
15398;SDS011;7797;51.428;6.756;2024-01-15T05:34:31;8.83;;;5.37;;
15398;SDS011;7797;51.428;6.756;2024-01-15T05:36:58;7.53;;;5.87;;
15398;SDS011;7797;51.428;6.756;2024-01-15T05:39:25;8.43;;;5.50;;
15398;SDS011;7797;51.428;6.756;2024-01-15T05:41:52;9.43;;;6.03;;
15398;SDS011;7797;51.428;6.756;2024-01-15T05:44:19;9.13;;;6.07;;
15398;SDS011;7797;51.428;6.756;2024-01-15T05:46:46;7.13;;;5.50;;
15398;SDS011;7797;51.428;6.756;2024-01-15T05:49:13;7.63;;;5.30;;
15398;SDS011;7797;51.428;6.756;2024-01-15T05:51:40;9.10;;;5.63;;
15398;SDS011;7797;51.428;6.756;2024-01-15T05:54:07;6.90;;;5.30;;
15398;SDS011;7797;51.428;6.756;2024-01-15T05:56:37;7.33;;;4.80;;
15398;SDS011;7797;51.428;6.756;2024-01-15T05:59:04;9.17;;;5.33;;
15398;SDS011;7797;51.428;6.756;2024-01-15T06:01:30;7.23;;;4.90;;
15398;SDS011;7797;51.428;6.756;2024-01-15T06:03:57;7.73;;;5.50;;
15398;SDS011;7797;51.428;6.756;2024-01-15T06:06:24;8.37;;;5.03;;
15398;SDS011;7797;51.428;6.756;2024-01-15T06:08:51;5.37;;;4.23;;
15398;SDS011;7797;51.428;6.756;2024-01-15T06:11:18;6.23;;;4.90;;
15398;SDS011;7797;51.428;6.756;2024-01-15T06:13:45;9.40;;;4.90;;
15398;SDS011;7797;51.428;6.756;2024-01-15T06:16:15;11.83;;;6.10;;
15398;SDS011;7797;51.428;6.756;2024-01-15T06:18:46;7.33;;;5.20;;
15398;SDS011;7797;51.428;6.756;2024-01-15T06:21:13;5.77;;;4.67;;
15398;SDS011;7797;51.428;6.756;2024-01-15T06:23:41;5.63;;;3.90;;
15398;SDS011;7797;51.428;6.756;2024-01-15T06:26:08;8.73;;;3.90;;
15398;SDS011;7797;51.428;6.756;2024-01-15T06:28:34;5.63;;;3.97;;
15398;SDS011;7797;51.428;6.756;2024-01-15T06:31:01;3.20;;;2.90;;
15398;SDS011;7797;51.428;6.756;2024-01-15T06:33:28;5.53;;;3.20;;
15398;SDS011;7797;51.428;6.756;2024-01-15T06:35:55;4.57;;;2.83;;
15398;SDS011;7797;51.428;6.756;2024-01-15T06:38:22;4.33;;;2.93;;
15398;SDS011;7797;51.428;6.756;2024-01-15T06:40:50;2.87;;;2.40;;
15398;SDS011;7797;51.428;6.756;2024-01-15T06:43:19;6.10;;;2.73;;
15398;SDS011;7797;51.428;6.756;2024-01-15T06:45:46;2.73;;;2.53;;
15398;SDS011;7797;51.428;6.756;2024-01-15T06:48:13;4.10;;;2.80;;
15398;SDS011;7797;51.428;6.756;2024-01-15T06:50:42;5.97;;;2.90;;
15398;SDS011;7797;51.428;6.756;2024-01-15T06:53:10;5.40;;;2.60;;
15398;SDS011;7797;51.428;6.756;2024-01-15T06:55:37;3.60;;;2.70;;
15398;SDS011;7797;51.428;6.756;2024-01-15T06:58:04;4.57;;;2.07;;
15398;SDS011;7797;51.428;6.756;2024-01-15T07:00:31;2.57;;;2.30;;
15398;SDS011;7797;51.428;6.756;2024-01-15T07:02:58;2.00;;;1.80;;
15398;SDS011;7797;51.428;6.756;2024-01-15T07:05:25;2.30;;;2.10;;
15398;SDS011;7797;51.428;6.756;2024-01-15T07:08:02;2.87;;;2.23;;
15398;SDS011;7797;51.428;6.756;2024-01-15T07:10:28;3.57;;;2.13;;
15398;SDS011;7797;51.428;6.756;2024-01-15T07:12:57;2.10;;;1.90;;
15398;SDS011;7797;51.428;6.756;2024-01-15T07:15:24;2.97;;;2.30;;
15398;SDS011;7797;51.428;6.756;2024-01-15T07:17:51;4.30;;;2.20;;
15398;SDS011;7797;51.428;6.756;2024-01-15T07:20:17;5.10;;;2.40;;
15398;SDS011;7797;51.428;6.756;2024-01-15T07:22:45;5.13;;;2.87;;
15398;SDS011;7797;51.428;6.756;2024-01-15T07:25:12;4.20;;;2.90;;
15398;SDS011;7797;51.428;6.756;2024-01-15T07:27:42;6.93;;;3.00;;
15398;SDS011;7797;51.428;6.756;2024-01-15T07:30:11;5.33;;;3.80;;
15398;SDS011;7797;51.428;6.756;2024-01-15T07:32:39;3.80;;;2.93;;
15398;SDS011;7797;51.428;6.756;2024-01-15T07:35:05;5.17;;;3.20;;
15398;SDS011;7797;51.428;6.756;2024-01-15T07:37:32;4.17;;;3.33;;
15398;SDS011;7797;51.428;6.756;2024-01-15T07:39:59;6.97;;;4.63;;
15398;SDS011;7797;51.428;6.756;2024-01-15T07:42:27;8.93;;;5.43;;
15398;SDS011;7797;51.428;6.756;2024-01-15T07:44:54;6.93;;;5.23;;
15398;SDS011;7797;51.428;6.756;2024-01-15T07:47:21;9.83;;;5.93;;
15398;SDS011;7797;51.428;6.756;2024-01-15T07:49:47;12.70;;;9.13;;
15398;SDS011;7797;51.428;6.756;2024-01-15T07:52:15;10.03;;;6.77;;
15398;SDS011;7797;51.428;6.756;2024-01-15T07:54:41;10.40;;;7.40;;
15398;SDS011;7797;51.428;6.756;2024-01-15T07:57:08;7.73;;;6.60;;
15398;SDS011;7797;51.428;6.756;2024-01-15T07:59:35;7.13;;;6.43;;
15398;SDS011;7797;51.428;6.756;2024-01-15T08:02:02;8.97;;;7.30;;
15398;SDS011;7797;51.428;6.756;2024-01-15T08:04:29;8.47;;;6.73;;
15398;SDS011;7797;51.428;6.756;2024-01-15T08:06:56;11.77;;;6.77;;
15398;SDS011;7797;51.428;6.756;2024-01-15T08:09:25;10.03;;;6.53;;
15398;SDS011;7797;51.428;6.756;2024-01-15T08:11:52;9.73;;;7.10;;
15398;SDS011;7797;51.428;6.756;2024-01-15T08:14:19;7.53;;;6.73;;
15398;SDS011;7797;51.428;6.756;2024-01-15T08:16:45;7.37;;;6.63;;
15398;SDS011;7797;51.428;6.756;2024-01-15T08:19:12;7.73;;;6.77;;
15398;SDS011;7797;51.428;6.756;2024-01-15T08:21:40;7.67;;;6.87;;
15398;SDS011;7797;51.428;6.756;2024-01-15T08:24:07;7.50;;;6.70;;
15398;SDS011;7797;51.428;6.756;2024-01-15T08:26:35;7.90;;;6.20;;
15398;SDS011;7797;51.428;6.756;2024-01-15T08:29:01;6.50;;;5.67;;
15398;SDS011;7797;51.428;6.756;2024-01-15T08:31:28;8.17;;;6.17;;
15398;SDS011;7797;51.428;6.756;2024-01-15T08:33:55;6.63;;;5.97;;
15398;SDS011;7797;51.428;6.756;2024-01-15T08:36:23;6.30;;;5.20;;
15398;SDS011;7797;51.428;6.756;2024-01-15T08:38:51;5.87;;;5.13;;
15398;SDS011;7797;51.428;6.756;2024-01-15T08:41:18;5.53;;;5.00;;
15398;SDS011;7797;51.428;6.756;2024-01-15T08:43:44;4.97;;;4.53;;
15398;SDS011;7797;51.428;6.756;2024-01-15T08:46:11;4.63;;;4.23;;
15398;SDS011;7797;51.428;6.756;2024-01-15T08:48:38;5.20;;;4.70;;
15398;SDS011;7797;51.428;6.756;2024-01-15T08:51:06;5.00;;;4.50;;
15398;SDS011;7797;51.428;6.756;2024-01-15T08:53:35;5.50;;;4.70;;
15398;SDS011;7797;51.428;6.756;2024-01-15T08:56:01;8.30;;;4.63;;
15398;SDS011;7797;51.428;6.756;2024-01-15T08:58:28;4.63;;;4.23;;
15398;SDS011;7797;51.428;6.756;2024-01-15T09:00:55;4.67;;;3.93;;
15398;SDS011;7797;51.428;6.756;2024-01-15T09:03:22;4.10;;;3.80;;
15398;SDS011;7797;51.428;6.756;2024-01-15T09:05:49;4.90;;;4.47;;
15398;SDS011;7797;51.428;6.756;2024-01-15T09:08:16;4.93;;;4.47;;
15398;SDS011;7797;51.428;6.756;2024-01-15T09:10:43;4.70;;;4.30;;
15398;SDS011;7797;51.428;6.756;2024-01-15T09:13:10;4.20;;;3.90;;
15398;SDS011;7797;51.428;6.756;2024-01-15T09:15:36;4.70;;;4.30;;
15398;SDS011;7797;51.428;6.756;2024-01-15T09:18:03;4.43;;;4.07;;
15398;SDS011;7797;51.428;6.756;2024-01-15T09:20:34;4.47;;;3.77;;
15398;SDS011;7797;51.428;6.756;2024-01-15T09:23:00;4.03;;;3.67;;
15398;SDS011;7797;51.428;6.756;2024-01-15T09:25:27;3.87;;;3.57;;
15398;SDS011;7797;51.428;6.756;2024-01-15T09:27:54;3.37;;;3.13;;
15398;SDS011;7797;51.428;6.756;2024-01-15T09:30:21;3.43;;;3.20;;
15398;SDS011;7797;51.428;6.756;2024-01-15T09:32:48;4.87;;;3.10;;
15398;SDS011;7797;51.428;6.756;2024-01-15T09:35:15;3.60;;;3.30;;
15398;SDS011;7797;51.428;6.756;2024-01-15T09:37:42;3.20;;;3.00;;
15398;SDS011;7797;51.428;6.756;2024-01-15T09:40:13;2.97;;;2.77;;
15398;SDS011;7797;51.428;6.756;2024-01-15T09:42:42;2.63;;;2.43;;
15398;SDS011;7797;51.428;6.756;2024-01-15T09:45:09;2.90;;;2.70;;
15398;SDS011;7797;51.428;6.756;2024-01-15T09:47:37;2.97;;;2.77;;
15398;SDS011;7797;51.428;6.756;2024-01-15T09:50:08;3.07;;;2.70;;
15398;SDS011;7797;51.428;6.756;2024-01-15T09:52:36;2.50;;;2.30;;
15398;SDS011;7797;51.428;6.756;2024-01-15T09:55:03;3.13;;;2.70;;
15398;SDS011;7797;51.428;6.756;2024-01-15T09:57:32;2.70;;;2.50;;
15398;SDS011;7797;51.428;6.756;2024-01-15T09:59:59;2.73;;;2.53;;
15398;SDS011;7797;51.428;6.756;2024-01-15T10:02:30;3.03;;;2.83;;
15398;SDS011;7797;51.428;6.756;2024-01-15T10:04:57;3.10;;;2.87;;
15398;SDS011;7797;51.428;6.756;2024-01-15T10:07:25;2.90;;;2.70;;
15398;SDS011;7797;51.428;6.756;2024-01-15T10:09:52;3.37;;;3.07;;
15398;SDS011;7797;51.428;6.756;2024-01-15T10:12:20;2.83;;;2.63;;
15398;SDS011;7797;51.428;6.756;2024-01-15T10:14:50;2.60;;;2.40;;
15398;SDS011;7797;51.428;6.756;2024-01-15T10:17:17;3.07;;;2.77;;
15398;SDS011;7797;51.428;6.756;2024-01-15T10:19:45;3.73;;;2.80;;
15398;SDS011;7797;51.428;6.756;2024-01-15T10:22:16;2.50;;;2.30;;
15398;SDS011;7797;51.428;6.756;2024-01-15T10:24:45;3.33;;;2.40;;
15398;SDS011;7797;51.428;6.756;2024-01-15T10:27:14;2.60;;;2.40;;
15398;SDS011;7797;51.428;6.756;2024-01-15T10:29:42;2.70;;;2.50;;
15398;SDS011;7797;51.428;6.756;2024-01-15T10:32:10;4.87;;;2.67;;
15398;SDS011;7797;51.428;6.756;2024-01-15T10:34:38;3.47;;;2.53;;
15398;SDS011;7797;51.428;6.756;2024-01-15T10:37:10;2.80;;;2.60;;
15398;SDS011;7797;51.428;6.756;2024-01-15T10:39:37;3.07;;;2.87;;
15398;SDS011;7797;51.428;6.756;2024-01-15T10:42:05;3.27;;;2.97;;
15398;SDS011;7797;51.428;6.756;2024-01-15T10:44:33;3.13;;;2.83;;
15398;SDS011;7797;51.428;6.756;2024-01-15T10:47:01;3.50;;;3.20;;
15398;SDS011;7797;51.428;6.756;2024-01-15T10:49:28;2.87;;;2.57;;
15398;SDS011;7797;51.428;6.756;2024-01-15T10:51:59;2.60;;;2.40;;
15398;SDS011;7797;51.428;6.756;2024-01-15T10:54:30;2.80;;;2.60;;
15398;SDS011;7797;51.428;6.756;2024-01-15T10:56:58;2.83;;;2.63;;
15398;SDS011;7797;51.428;6.756;2024-01-15T10:59:25;2.70;;;2.50;;
15398;SDS011;7797;51.428;6.756;2024-01-15T11:01:52;2.80;;;2.60;;
15398;SDS011;7797;51.428;6.756;2024-01-15T11:04:21;3.07;;;2.77;;
15398;SDS011;7797;51.428;6.756;2024-01-15T11:06:52;2.70;;;2.50;;
15398;SDS011;7797;51.428;6.756;2024-01-15T11:09:22;2.90;;;2.70;;
15398;SDS011;7797;51.428;6.756;2024-01-15T11:11:52;2.97;;;2.73;;
15398;SDS011;7797;51.428;6.756;2024-01-15T11:15:00;3.40;;;3.10;;
15398;SDS011;7797;51.428;6.756;2024-01-15T11:17:14;3.10;;;2.90;;
15398;SDS011;7797;51.428;6.756;2024-01-15T11:22:09;3.33;;;3.13;;
15398;SDS011;7797;51.428;6.756;2024-01-15T11:24:54;3.30;;;3.00;;
15398;SDS011;7797;51.428;6.756;2024-01-15T11:30:08;4.47;;;2.97;;
15398;SDS011;7797;51.428;6.756;2024-01-15T11:32:37;4.30;;;2.93;;
15398;SDS011;7797;51.428;6.756;2024-01-15T11:35:08;3.03;;;2.77;;
15398;SDS011;7797;51.428;6.756;2024-01-15T11:40:24;4.33;;;3.30;;
15398;SDS011;7797;51.428;6.756;2024-01-15T11:43:04;3.53;;;2.80;;
15398;SDS011;7797;51.428;6.756;2024-01-15T11:45:32;2.73;;;2.50;;
15398;SDS011;7797;51.428;6.756;2024-01-15T11:50:40;5.03;;;2.60;;
15398;SDS011;7797;51.428;6.756;2024-01-15T11:53:19;5.23;;;3.70;;
15398;SDS011;7797;51.428;6.756;2024-01-15T11:55:51;5.50;;;3.10;;
15398;SDS011;7797;51.428;6.756;2024-01-15T11:58:18;6.30;;;2.80;;
15398;SDS011;7797;51.428;6.756;2024-01-15T12:00:45;3.80;;;2.70;;
15398;SDS011;7797;51.428;6.756;2024-01-15T12:03:14;3.73;;;2.50;;
15398;SDS011;7797;51.428;6.756;2024-01-15T12:05:41;2.70;;;2.43;;
15398;SDS011;7797;51.428;6.756;2024-01-15T12:08:08;2.40;;;2.20;;
15398;SDS011;7797;51.428;6.756;2024-01-15T12:10:39;3.53;;;1.90;;
15398;SDS011;7797;51.428;6.756;2024-01-15T12:13:11;3.20;;;2.00;;
15398;SDS011;7797;51.428;6.756;2024-01-15T12:15:40;2.60;;;2.00;;
15398;SDS011;7797;51.428;6.756;2024-01-15T12:18:14;3.10;;;1.93;;
15398;SDS011;7797;51.428;6.756;2024-01-15T12:20:44;4.27;;;1.80;;
15398;SDS011;7797;51.428;6.756;2024-01-15T12:23:14;3.50;;;2.00;;
15398;SDS011;7797;51.428;6.756;2024-01-15T12:25:41;1.97;;;1.77;;
15398;SDS011;7797;51.428;6.756;2024-01-15T12:28:08;2.17;;;1.53;;
15398;SDS011;7797;51.428;6.756;2024-01-15T12:30:35;4.57;;;2.07;;
15398;SDS011;7797;51.428;6.756;2024-01-15T12:33:05;3.50;;;2.10;;
15398;SDS011;7797;51.428;6.756;2024-01-15T12:35:35;5.27;;;1.90;;
15398;SDS011;7797;51.428;6.756;2024-01-15T12:38:02;4.30;;;1.93;;
15398;SDS011;7797;51.428;6.756;2024-01-15T12:40:33;3.67;;;2.50;;
15398;SDS011;7797;51.428;6.756;2024-01-15T12:43:04;2.37;;;2.17;;
15398;SDS011;7797;51.428;6.756;2024-01-15T12:45:32;3.50;;;1.80;;
15398;SDS011;7797;51.428;6.756;2024-01-15T12:48:02;2.30;;;2.10;;
15398;SDS011;7797;51.428;6.756;2024-01-15T12:50:30;4.63;;;2.17;;
15398;SDS011;7797;51.428;6.756;2024-01-15T12:52:57;4.83;;;2.00;;
15398;SDS011;7797;51.428;6.756;2024-01-15T12:55:25;3.10;;;1.93;;
15398;SDS011;7797;51.428;6.756;2024-01-15T12:57:52;3.53;;;2.20;;
15398;SDS011;7797;51.428;6.756;2024-01-15T13:00:21;2.63;;;2.10;;
15398;SDS011;7797;51.428;6.756;2024-01-15T13:02:48;2.17;;;1.97;;
15398;SDS011;7797;51.428;6.756;2024-01-15T13:05:16;2.10;;;2.00;;
15398;SDS011;7797;51.428;6.756;2024-01-15T13:07:44;4.97;;;2.30;;
15398;SDS011;7797;51.428;6.756;2024-01-15T13:10:10;2.77;;;2.30;;
15398;SDS011;7797;51.428;6.756;2024-01-15T13:12:40;2.50;;;2.30;;
15398;SDS011;7797;51.428;6.756;2024-01-15T13:15:08;2.60;;;2.40;;
15398;SDS011;7797;51.428;6.756;2024-01-15T13:17:40;4.77;;;2.57;;
15398;SDS011;7797;51.428;6.756;2024-01-15T13:20:08;3.10;;;2.40;;
15398;SDS011;7797;51.428;6.756;2024-01-15T13:22:36;3.03;;;2.50;;
15398;SDS011;7797;51.428;6.756;2024-01-15T13:25:06;2.70;;;2.40;;
15398;SDS011;7797;51.428;6.756;2024-01-15T13:27:34;4.43;;;2.67;;
15398;SDS011;7797;51.428;6.756;2024-01-15T13:30:02;2.70;;;2.50;;
15398;SDS011;7797;51.428;6.756;2024-01-15T13:32:30;2.70;;;2.50;;
15398;SDS011;7797;51.428;6.756;2024-01-15T13:34:57;4.03;;;2.77;;
15398;SDS011;7797;51.428;6.756;2024-01-15T13:37:24;3.30;;;2.40;;
15398;SDS011;7797;51.428;6.756;2024-01-15T13:39:51;3.97;;;3.00;;
15398;SDS011;7797;51.428;6.756;2024-01-15T13:42:19;5.07;;;2.20;;
15398;SDS011;7797;51.428;6.756;2024-01-15T13:44:49;3.03;;;2.77;;
15398;SDS011;7797;51.428;6.756;2024-01-15T13:47:16;2.80;;;2.37;;
15398;SDS011;7797;51.428;6.756;2024-01-15T13:49:43;3.23;;;2.23;;
15398;SDS011;7797;51.428;6.756;2024-01-15T13:52:10;4.20;;;1.90;;
15398;SDS011;7797;51.428;6.756;2024-01-15T13:54:36;1.53;;;1.47;;
15398;SDS011;7797;51.428;6.756;2024-01-15T13:57:15;1.40;;;1.40;;
15398;SDS011;7797;51.428;6.756;2024-01-15T13:59:43;2.17;;;1.40;;
15398;SDS011;7797;51.428;6.756;2024-01-15T14:02:09;1.50;;;1.40;;
15398;SDS011;7797;51.428;6.756;2024-01-15T14:04:37;1.60;;;1.50;;
15398;SDS011;7797;51.428;6.756;2024-01-15T14:07:04;1.63;;;1.53;;
15398;SDS011;7797;51.428;6.756;2024-01-15T14:09:31;1.67;;;1.40;;
15398;SDS011;7797;51.428;6.756;2024-01-15T14:11:58;1.10;;;1.10;;
15398;SDS011;7797;51.428;6.756;2024-01-15T14:14:25;1.47;;;1.37;;
15398;SDS011;7797;51.428;6.756;2024-01-15T14:16:52;1.70;;;1.30;;
15398;SDS011;7797;51.428;6.756;2024-01-15T14:19:19;1.27;;;1.27;;
15398;SDS011;7797;51.428;6.756;2024-01-15T14:21:48;1.03;;;1.03;;
15398;SDS011;7797;51.428;6.756;2024-01-15T14:24:15;2.40;;;1.40;;
15398;SDS011;7797;51.428;6.756;2024-01-15T14:26:43;1.30;;;1.20;;
15398;SDS011;7797;51.428;6.756;2024-01-15T14:29:10;2.23;;;1.30;;
15398;SDS011;7797;51.428;6.756;2024-01-15T14:31:37;1.40;;;1.30;;
15398;SDS011;7797;51.428;6.756;2024-01-15T14:34:04;2.63;;;1.60;;
15398;SDS011;7797;51.428;6.756;2024-01-15T14:36:31;1.10;;;1.10;;
15398;SDS011;7797;51.428;6.756;2024-01-15T14:38:58;1.20;;;1.10;;
15398;SDS011;7797;51.428;6.756;2024-01-15T14:41:25;2.20;;;1.30;;
15398;SDS011;7797;51.428;6.756;2024-01-15T14:43:52;1.27;;;1.27;;
15398;SDS011;7797;51.428;6.756;2024-01-15T14:46:19;1.40;;;1.40;;
15398;SDS011;7797;51.428;6.756;2024-01-15T14:48:47;1.63;;;1.40;;
15398;SDS011;7797;51.428;6.756;2024-01-15T14:51:14;4.10;;;1.77;;
15398;SDS011;7797;51.428;6.756;2024-01-15T14:53:41;2.37;;;2.17;;
15398;SDS011;7797;51.428;6.756;2024-01-15T14:56:09;1.80;;;1.70;;
15398;SDS011;7797;51.428;6.756;2024-01-15T14:58:38;2.83;;;1.70;;
15398;SDS011;7797;51.428;6.756;2024-01-15T15:01:04;3.17;;;1.80;;
15398;SDS011;7797;51.428;6.756;2024-01-15T15:03:31;2.60;;;1.80;;
15398;SDS011;7797;51.428;6.756;2024-01-15T15:05:59;2.43;;;1.63;;
15398;SDS011;7797;51.428;6.756;2024-01-15T15:08:29;3.10;;;1.90;;